createdAt,value
2019-06-10T00:01:08.627Z,12.40
2019-06-10T00:03:39.002Z,12.40
2019-06-10T00:06:11.527Z,12.40
2019-06-10T00:08:41.590Z,12.50
2019-06-10T00:11:12.025Z,12.50
2019-06-10T00:13:42.834Z,12.50
2019-06-10T00:16:13.451Z,12.60
2019-06-10T00:18:45.762Z,12.50
2019-06-10T00:21:16.659Z,12.40
2019-06-10T00:23:47.104Z,12.30
2019-06-10T00:26:18.251Z,12.30
2019-06-10T00:28:50.941Z,12.30
2019-06-10T00:31:20.949Z,12.40
2019-06-10T00:33:52.059Z,12.40
2019-06-10T00:36:22.959Z,12.40
2019-06-10T00:38:53.363Z,12.30
2019-06-10T00:41:24.552Z,12.20
2019-06-10T00:43:55.692Z,12.20
2019-06-10T00:46:26.698Z,12.20
2019-06-10T00:48:57.605Z,12.30
2019-06-10T00:51:28.295Z,12.20
2019-06-10T00:54:02.018Z,12.10
2019-06-10T00:56:31.184Z,12.00
2019-06-10T00:59:03.733Z,11.90
2019-06-10T01:01:34.240Z,11.90
2019-06-10T01:04:05.468Z,12.00
2019-06-10T01:06:38.906Z,12.10
2019-06-10T01:09:12.749Z,12.20
2019-06-10T01:11:42.366Z,12.20
2019-06-10T01:14:15.321Z,12.20
2019-06-10T01:16:45.564Z,12.20
2019-06-10T01:19:16.169Z,12.30
2019-06-10T01:21:46.994Z,12.30
2019-06-10T01:24:18.003Z,12.30
2019-06-10T01:26:50.564Z,12.30
2019-06-10T01:29:21.433Z,12.20
2019-06-10T01:31:51.939Z,12.20
2019-06-10T01:34:23.339Z,12.20
2019-06-10T01:36:54.042Z,12.30
2019-06-10T01:39:25.146Z,12.30
2019-06-10T01:42:15.914Z,12.20
2019-06-10T01:44:47.044Z,12.20
2019-06-10T01:47:17.830Z,12.20
2019-06-10T01:49:48.242Z,12.10
2019-06-10T01:52:21.082Z,12.00
2019-06-10T01:54:51.579Z,11.90
2019-06-10T01:57:22.626Z,11.90
2019-06-10T01:59:53.617Z,11.90
2019-06-10T02:02:25.171Z,12.00
2019-06-10T02:04:55.964Z,12.00
2019-06-10T02:07:26.358Z,12.00
2019-06-10T02:09:56.963Z,12.10
2019-06-10T02:12:28.049Z,12.10
2019-06-10T02:14:58.446Z,12.20
2019-06-10T02:17:31.419Z,12.20
2019-06-10T02:20:01.571Z,12.20
2019-06-10T02:22:32.432Z,12.20
2019-06-10T02:25:03.638Z,12.20
2019-06-10T02:27:34.369Z,12.20
2019-06-10T02:30:14.879Z,12.20
2019-06-10T02:32:38.229Z,12.30
2019-06-10T02:35:15.498Z,12.30
2019-06-10T02:37:44.409Z,12.30
2019-06-10T02:40:18.400Z,12.40
2019-06-10T02:42:47.272Z,12.50
2019-06-10T02:45:23.710Z,12.50
2019-06-10T02:47:53.317Z,12.50
2019-06-10T02:50:44.862Z,12.50
2019-06-10T02:53:16.970Z,12.60
2019-06-10T02:55:47.614Z,12.60
2019-06-10T02:58:19.102Z,12.70
2019-06-10T03:00:50.390Z,12.60
2019-06-10T03:03:31.643Z,12.50
2019-06-10T03:05:53.836Z,12.40
2019-06-10T03:08:28.678Z,12.30
2019-06-10T03:10:56.794Z,12.30
2019-06-10T03:13:28.152Z,12.40
2019-06-10T03:16:20.474Z,12.40
2019-06-10T03:18:52.521Z,12.40
2019-06-10T03:21:25.679Z,12.50
2019-06-10T03:23:56.294Z,12.50
2019-06-10T03:26:27.661Z,12.60
2019-06-10T03:28:58.093Z,12.60
2019-06-10T03:31:40.168Z,12.70
2019-06-10T03:34:04.500Z,12.70
2019-06-10T03:36:32.727Z,12.70
2019-06-10T03:39:03.798Z,12.70
2019-06-10T03:41:34.207Z,12.70
2019-06-10T03:44:05.310Z,12.70
2019-06-10T03:46:36.235Z,12.70
2019-06-10T03:49:06.734Z,12.70
2019-06-10T03:51:37.216Z,12.80
2019-06-10T03:54:07.630Z,12.90
2019-06-10T03:56:37.930Z,13.00
2019-06-10T03:59:12.204Z,13.00
2019-06-10T04:01:42.876Z,13.10
2019-06-10T04:04:13.698Z,13.20
2019-06-10T04:06:44.488Z,13.30
2019-06-10T04:09:14.895Z,13.30
2019-06-10T04:11:45.418Z,13.40
2019-06-10T04:14:15.895Z,13.40
2019-06-10T04:16:46.346Z,13.40
2019-06-10T04:19:17.613Z,13.30
2019-06-10T04:21:48.190Z,13.30
2019-06-10T04:24:20.316Z,13.30
2019-06-10T04:26:52.145Z,13.30
2019-06-10T04:29:24.272Z,13.40
2019-06-10T04:31:54.740Z,13.50
2019-06-10T04:34:28.234Z,13.60
2019-06-10T04:36:57.248Z,13.80
2019-06-10T04:39:29.010Z,13.80
2019-06-10T04:41:59.606Z,13.80
2019-06-10T04:44:29.916Z,13.90
2019-06-10T04:47:02.532Z,14.00
2019-06-10T04:49:32.820Z,14.10
2019-06-10T04:52:03.414Z,14.10
2019-06-10T04:54:35.378Z,14.20
2019-06-10T04:57:05.762Z,14.30
2019-06-10T04:59:36.272Z,14.40
2019-06-10T05:02:06.667Z,14.50
2019-06-10T05:04:37.126Z,14.50
2019-06-10T05:07:07.513Z,14.70
2019-06-10T05:09:37.861Z,14.70
2019-06-10T05:12:08.440Z,14.90
2019-06-10T05:14:38.950Z,15.00
2019-06-10T05:17:09.334Z,15.20
2019-06-10T05:19:39.846Z,15.20
2019-06-10T05:22:12.257Z,15.20
2019-06-10T05:24:42.513Z,15.40
2019-06-10T05:27:12.972Z,15.50
2019-06-10T05:29:43.646Z,15.70
2019-06-10T05:32:14.118Z,15.80
2019-06-10T05:34:44.606Z,15.90
2019-06-10T05:37:15.007Z,16.00
2019-06-10T05:39:45.490Z,16.30
2019-06-10T05:42:15.902Z,16.50
2019-06-10T05:44:46.214Z,16.80
2019-06-10T05:47:16.621Z,16.90
2019-06-10T05:49:47.087Z,17.10
2019-06-10T05:52:17.606Z,17.30
2019-06-10T05:54:48.087Z,17.50
2019-06-10T05:57:18.458Z,17.60
2019-06-10T05:59:48.962Z,17.70
2019-06-10T06:02:19.374Z,17.80
2019-06-10T06:04:49.862Z,17.90
2019-06-10T06:07:22.253Z,17.90
2019-06-10T06:09:53.260Z,18.00
2019-06-10T06:12:25.475Z,18.10
2019-06-10T06:14:55.870Z,18.10
2019-06-10T06:17:26.357Z,18.20
2019-06-10T06:20:02.566Z,18.30
2019-06-10T06:22:33.678Z,18.30
2019-06-10T06:25:05.961Z,18.40
2019-06-10T06:27:37.070Z,18.40
2019-06-10T06:30:14.738Z,18.40
2019-06-10T06:32:43.550Z,18.50
2019-06-10T06:35:14.167Z,18.50
2019-06-10T06:37:44.578Z,18.50
2019-06-10T06:40:15.563Z,18.60
2019-06-10T06:42:45.942Z,18.50
2019-06-10T06:45:17.955Z,18.50
2019-06-10T06:47:48.330Z,18.60
2019-06-10T06:50:22.537Z,18.60
2019-06-10T06:53:18.734Z,18.60
2019-06-10T06:55:23.490Z,18.70
2019-06-10T06:57:54.010Z,18.70
2019-06-10T07:00:49.225Z,18.70
2019-06-10T07:03:06.343Z,18.80
2019-06-10T07:05:38.873Z,18.80
2019-06-10T07:08:09.646Z,18.70
2019-06-10T07:10:41.440Z,18.70
2019-06-10T07:13:12.890Z,18.70
2019-06-10T07:15:46.953Z,18.80
2019-06-10T07:18:17.098Z,18.80
2019-06-10T07:20:47.570Z,18.90
2019-06-10T07:23:18.354Z,18.90
2019-06-10T07:25:48.738Z,18.90
2019-06-10T07:28:19.118Z,18.90
2019-06-10T07:30:52.714Z,18.90
2019-06-10T07:33:22.692Z,18.90
2019-06-10T07:35:56.407Z,18.80
2019-06-10T07:38:26.256Z,18.80
2019-06-10T07:40:57.978Z,18.80
2019-06-10T07:43:28.438Z,19.00
2019-06-10T07:45:58.767Z,19.10
2019-06-10T07:48:29.248Z,19.10
2019-06-10T07:51:02.582Z,19.30
2019-06-10T07:53:33.097Z,19.40
2019-06-10T07:56:05.062Z,19.50
2019-06-10T07:58:36.848Z,19.60
2019-06-10T08:01:07.704Z,19.70
2019-06-10T08:03:39.759Z,19.90
2019-06-10T08:06:12.703Z,19.90
2019-06-10T08:08:45.285Z,19.90
2019-06-10T08:11:14.450Z,19.90
2019-06-10T08:13:46.308Z,20.10
2019-06-10T08:16:16.870Z,20.10
2019-06-10T08:19:15.932Z,20.20
2019-06-10T08:21:19.560Z,20.30
2019-06-10T08:23:49.938Z,20.40
2019-06-10T08:26:22.982Z,20.40
2019-06-10T08:28:52.994Z,20.50
2019-06-10T08:31:24.062Z,20.40
2019-06-10T08:33:54.440Z,20.50
2019-06-10T08:36:24.925Z,20.80
2019-06-10T08:38:55.302Z,21.10
2019-06-10T08:41:25.630Z,21.30
2019-06-10T08:43:56.068Z,21.50
2019-06-10T08:46:26.495Z,21.70
2019-06-10T08:48:56.875Z,22.00
2019-06-10T08:51:27.323Z,22.20
2019-06-10T08:53:58.131Z,22.50
2019-06-10T08:56:28.562Z,22.70
2019-06-10T08:58:59.155Z,22.90
2019-06-10T09:01:29.661Z,22.70
2019-06-10T09:04:02.906Z,22.60
2019-06-10T09:06:32.955Z,22.50
2019-06-10T09:09:05.085Z,22.40
2019-06-10T09:11:35.458Z,22.30
2019-06-10T09:14:06.295Z,22.10
2019-06-10T09:16:36.786Z,21.90
2019-06-10T09:19:07.132Z,21.70
2019-06-10T09:21:39.146Z,21.40
2019-06-10T09:24:09.836Z,21.20
2019-06-10T09:26:44.541Z,21.40
2019-06-10T09:29:13.441Z,21.50
2019-06-10T09:31:48.882Z,21.70
2019-06-10T09:34:16.495Z,22.00
2019-06-10T09:36:50.101Z,22.20
2019-06-10T09:39:19.074Z,22.40
2019-06-10T09:41:56.629Z,22.50
2019-06-10T09:44:22.927Z,22.60
2019-06-10T09:47:00.249Z,22.70
2019-06-10T09:49:32.807Z,22.60
2019-06-10T09:52:03.310Z,22.30
2019-06-10T09:54:37.132Z,22.00
2019-06-10T09:57:07.533Z,22.00
2019-06-10T09:59:37.886Z,22.10
2019-06-10T10:02:08.401Z,22.10
2019-06-10T10:04:39.163Z,22.00
2019-06-10T10:07:12.037Z,21.90
2019-06-10T10:09:46.604Z,21.70
2019-06-10T10:12:14.434Z,21.70
2019-06-10T10:14:48.044Z,21.80
2019-06-10T10:17:17.027Z,21.70
2019-06-10T10:19:49.715Z,21.50
2019-06-10T10:22:22.760Z,21.20
2019-06-10T10:24:55.259Z,21.00
2019-06-10T10:27:24.399Z,20.80
2019-06-10T10:29:57.165Z,20.60
2019-06-10T10:32:26.854Z,20.50
2019-06-10T10:34:57.216Z,20.30
2019-06-10T10:37:27.586Z,20.20
2019-06-10T10:39:58.753Z,20.00
2019-06-10T10:42:41.742Z,20.00
2019-06-10T10:45:02.815Z,20.00
2019-06-10T10:47:33.632Z,20.00
2019-06-10T10:50:04.714Z,20.10
2019-06-10T10:52:35.110Z,20.10
2019-06-10T10:55:06.982Z,20.10
2019-06-10T10:57:37.515Z,20.20
2019-06-10T11:00:08.314Z,20.00
2019-06-10T11:02:38.910Z,20.00
2019-06-10T11:05:12.668Z,20.00
2019-06-10T11:07:44.362Z,19.90
2019-06-10T11:10:14.810Z,19.70
2019-06-10T11:12:47.029Z,19.50
2019-06-10T11:15:23.056Z,19.50
2019-06-10T11:17:55.123Z,19.30
2019-06-10T11:20:24.930Z,19.20
2019-06-10T11:22:55.311Z,19.00
2019-06-10T11:25:25.713Z,18.90
2019-06-10T11:27:57.311Z,18.80
2019-06-10T11:30:28.275Z,18.90
2019-06-10T11:32:59.704Z,18.90
2019-06-10T11:35:30.203Z,19.00
2019-06-10T11:38:03.254Z,18.90
2019-06-10T11:40:34.093Z,18.80
2019-06-10T11:43:04.800Z,18.70
2019-06-10T11:45:35.302Z,18.70
2019-06-10T11:48:06.107Z,18.60
2019-06-10T11:50:36.512Z,18.70
2019-06-10T11:53:06.915Z,18.50
2019-06-10T11:55:37.414Z,18.30
2019-06-10T11:58:08.119Z,18.30
2019-06-10T12:00:38.622Z,18.20
2019-06-10T12:03:09.003Z,18.10
2019-06-10T12:05:39.406Z,18.20
2019-06-10T12:08:12.795Z,18.10
2019-06-10T12:10:43.419Z,18.00
2019-06-10T12:13:14.083Z,18.00
2019-06-10T12:16:20.726Z,17.80
2019-06-10T12:18:16.759Z,17.70
2019-06-10T12:20:47.302Z,17.60
2019-06-10T12:23:17.710Z,17.60
2019-06-10T12:25:49.716Z,17.60
2019-06-10T12:28:20.167Z,17.60
2019-06-10T12:30:55.461Z,17.60
2019-06-10T12:33:25.368Z,17.50
2019-06-10T12:35:58.539Z,17.30
2019-06-10T12:38:27.007Z,17.10
2019-06-10T12:40:58.949Z,17.00
2019-06-10T12:43:29.699Z,17.00
2019-06-10T12:46:00.826Z,16.90
2019-06-10T12:48:34.062Z,16.70
2019-06-10T12:51:08.767Z,16.60
2019-06-10T12:53:36.863Z,16.70
2019-06-10T12:56:10.911Z,16.70
2019-06-10T12:58:39.299Z,16.70
2019-06-10T13:01:09.791Z,16.80
2019-06-10T13:03:40.270Z,16.80
2019-06-10T13:06:13.083Z,16.80
2019-06-10T13:08:43.967Z,16.80
2019-06-10T13:11:15.704Z,16.80
2019-06-10T13:13:46.109Z,16.80
2019-06-10T13:16:16.486Z,16.90
2019-06-10T13:18:46.886Z,17.00
2019-06-10T13:21:17.937Z,17.00
2019-06-10T13:23:48.614Z,17.10
2019-06-10T13:26:19.027Z,17.10
2019-06-10T13:28:49.558Z,17.30
2019-06-10T13:31:19.903Z,17.50
2019-06-10T13:33:52.748Z,17.70
2019-06-10T13:36:25.948Z,17.90
2019-06-10T13:38:54.818Z,18.00
2019-06-10T13:41:25.285Z,18.00
2019-06-10T13:43:55.656Z,18.00
2019-06-10T13:46:26.142Z,18.00
2019-06-10T13:48:56.646Z,18.10
2019-06-10T13:51:27.042Z,18.30
2019-06-10T13:53:58.677Z,18.30
2019-06-10T13:56:43.105Z,18.30
2019-06-10T13:59:04.087Z,18.20
2019-06-10T14:01:35.082Z,18.20
2019-06-10T14:04:12.801Z,18.40
2019-06-10T14:06:46.097Z,18.60
2019-06-10T14:09:12.575Z,18.80
2019-06-10T14:11:42.402Z,18.70
2019-06-10T14:14:17.599Z,18.60
2019-06-10T14:16:45.466Z,18.80
2019-06-10T14:19:16.407Z,19.00
2019-06-10T14:21:47.086Z,19.20
2019-06-10T14:24:17.492Z,19.40
2019-06-10T14:26:47.996Z,19.50
2019-06-10T14:29:18.546Z,19.70
2019-06-10T14:31:49.020Z,19.70
2019-06-10T14:34:22.315Z,19.50
2019-06-10T14:36:52.502Z,19.40
2019-06-10T14:39:23.059Z,19.30
2019-06-10T14:41:53.446Z,19.30
2019-06-10T14:44:23.950Z,19.20
2019-06-10T14:46:54.355Z,19.30
2019-06-10T14:49:24.782Z,19.50
2019-06-10T14:51:55.158Z,19.30
2019-06-10T14:54:25.613Z,19.10
2019-06-10T14:56:57.430Z,18.90
2019-06-10T14:59:28.055Z,18.90
2019-06-10T15:01:58.728Z,19.00
2019-06-10T15:04:29.602Z,18.90
2019-06-10T15:07:02.694Z,18.90
2019-06-10T15:09:33.458Z,19.00
2019-06-10T15:12:04.439Z,19.00
2019-06-10T15:14:34.778Z,19.10
2019-06-10T15:17:05.707Z,19.30
2019-06-10T15:19:39.019Z,19.30
2019-06-10T15:22:12.208Z,19.30
2019-06-10T15:24:42.767Z,19.30
2019-06-10T15:27:23.098Z,19.40
2019-06-10T15:29:45.619Z,19.40
2019-06-10T15:32:27.733Z,19.30
2019-06-10T15:34:48.178Z,19.40
2019-06-10T15:37:20.568Z,19.50
2019-06-10T15:39:52.701Z,19.60
2019-06-10T15:42:22.990Z,19.70
2019-06-10T15:44:55.955Z,19.70
2019-06-10T15:47:26.714Z,19.70
2019-06-10T15:49:57.323Z,19.50
2019-06-10T15:52:27.714Z,19.60
2019-06-10T15:54:58.047Z,19.90
2019-06-10T15:57:39.193Z,19.90
2019-06-10T16:00:02.964Z,19.70
2019-06-10T16:02:33.507Z,19.50
2019-06-10T16:05:04.427Z,19.20
2019-06-10T16:07:34.821Z,19.20
2019-06-10T16:10:06.219Z,19.10
2019-06-10T16:12:36.618Z,18.90
2019-06-10T16:15:07.618Z,18.80
2019-06-10T16:17:38.266Z,18.90
2019-06-10T16:20:09.186Z,19.10
2019-06-10T16:22:39.679Z,19.20
2019-06-10T16:25:12.546Z,19.30
2019-06-10T16:27:48.455Z,19.40
2019-06-10T16:30:14.644Z,19.50
2019-06-10T16:32:46.489Z,19.70
2019-06-10T16:35:18.771Z,19.90
2019-06-10T16:37:49.269Z,19.90
2019-06-10T16:40:19.829Z,20.00
2019-06-10T16:42:50.216Z,19.90
2019-06-10T16:45:25.501Z,19.80
2019-06-10T16:47:53.146Z,19.80
2019-06-10T16:50:25.702Z,19.80
2019-06-10T16:52:55.722Z,19.90
2019-06-10T16:55:27.250Z,19.90
2019-06-10T16:57:59.714Z,20.00
2019-06-10T17:00:31.478Z,20.00
2019-06-10T17:03:01.927Z,20.10
2019-06-10T17:05:33.180Z,20.10
2019-06-10T17:08:03.642Z,20.10
2019-06-10T17:10:34.536Z,20.20
2019-06-10T17:13:07.626Z,20.10
2019-06-10T17:15:38.048Z,20.20
2019-06-10T17:18:08.423Z,20.20
2019-06-10T17:20:38.942Z,20.00
2019-06-10T17:23:26.392Z,19.90
2019-06-10T17:25:56.279Z,19.70
2019-06-10T17:28:31.321Z,19.50
2019-06-10T17:31:03.445Z,19.30
2019-06-10T17:33:35.826Z,19.20
2019-06-10T17:36:05.351Z,19.00
2019-06-10T17:38:35.813Z,19.10
2019-06-10T17:41:06.193Z,19.20
2019-06-10T17:43:36.780Z,19.20
2019-06-10T17:46:07.156Z,19.10
2019-06-10T17:48:44.050Z,19.10
2019-06-10T17:51:14.567Z,19.10
2019-06-10T17:53:44.918Z,19.30
2019-06-10T17:56:15.316Z,19.30
2019-06-10T17:58:54.236Z,19.10
2019-06-10T18:01:17.704Z,19.00
2019-06-10T18:03:48.262Z,19.00
2019-06-10T18:06:18.771Z,19.00
2019-06-10T18:08:49.218Z,19.10
2019-06-10T18:11:19.615Z,19.10
2019-06-10T18:13:50.102Z,19.20
2019-06-10T18:16:22.800Z,19.00
2019-06-10T18:18:52.647Z,19.10
2019-06-10T18:21:24.326Z,19.00
2019-06-10T18:23:54.881Z,19.10
2019-06-10T18:26:26.695Z,19.00
2019-06-10T18:29:04.901Z,19.00
2019-06-10T18:31:29.509Z,19.00
2019-06-10T18:34:02.362Z,19.00
2019-06-10T18:36:33.105Z,19.00
2019-06-10T18:39:05.710Z,19.00
2019-06-10T18:41:37.379Z,19.00
2019-06-10T18:44:19.820Z,18.90
2019-06-10T18:46:40.225Z,18.90
2019-06-10T18:49:13.351Z,18.90
2019-06-10T18:51:43.755Z,18.90
2019-06-10T18:54:14.210Z,18.90
2019-06-10T18:56:44.733Z,18.90
2019-06-10T18:59:20.644Z,19.00
2019-06-10T19:01:47.150Z,19.00
2019-06-10T19:04:17.682Z,19.00
2019-06-10T19:06:48.370Z,18.80
2019-06-10T19:09:19.053Z,18.70
2019-06-10T19:11:49.810Z,18.70
2019-06-10T19:14:20.319Z,18.70
2019-06-10T19:16:52.410Z,18.80
2019-06-10T19:19:23.111Z,18.70
2019-06-10T19:22:05.529Z,18.60
2019-06-10T19:24:25.504Z,18.70
2019-06-10T19:26:58.882Z,18.70
2019-06-10T19:29:36.009Z,18.70
2019-06-10T19:32:00.094Z,18.70
2019-06-10T19:34:31.265Z,18.60
2019-06-10T19:37:02.588Z,18.60
2019-06-10T19:39:38.350Z,18.60
2019-06-10T19:42:05.130Z,18.50
2019-06-10T19:44:36.983Z,18.60
2019-06-10T19:47:07.510Z,18.60
2019-06-10T19:49:38.645Z,18.70
2019-06-10T19:52:09.143Z,18.80
2019-06-10T19:54:39.623Z,18.70
2019-06-10T19:57:10.016Z,18.80
2019-06-10T20:00:02.763Z,18.80
2019-06-10T20:02:12.646Z,18.80
2019-06-10T20:04:45.265Z,18.80
2019-06-10T20:07:15.498Z,18.70
2019-06-10T20:09:46.419Z,18.70
2019-06-10T20:12:16.814Z,18.70
2019-06-10T20:14:47.892Z,18.70
2019-06-10T20:17:18.362Z,18.80
2019-06-10T20:19:48.778Z,18.80
2019-06-10T20:22:19.293Z,18.80
2019-06-10T20:24:52.329Z,18.80
2019-06-10T20:27:22.651Z,18.80
2019-06-10T20:30:04.548Z,18.80
2019-06-10T20:32:25.478Z,18.80
2019-06-10T20:34:55.910Z,18.70
2019-06-10T20:37:26.458Z,18.70
2019-06-10T20:39:56.779Z,18.60
2019-06-10T20:42:27.336Z,18.60
2019-06-10T20:44:57.736Z,18.60
2019-06-10T20:47:28.245Z,18.60
2019-06-10T20:49:58.715Z,18.50
2019-06-10T20:52:29.092Z,18.50
2019-06-10T20:55:02.391Z,18.50
2019-06-10T20:57:33.070Z,18.40
2019-06-10T21:00:18.753Z,18.50
2019-06-10T21:02:36.126Z,18.50
2019-06-10T21:05:10.199Z,18.50
2019-06-10T21:07:39.646Z,18.50
2019-06-10T21:10:12.880Z,18.50
2019-06-10T21:12:44.914Z,18.40
2019-06-10T21:15:15.098Z,18.40
2019-06-10T21:17:46.458Z,18.40
2019-06-10T21:20:17.411Z,18.30
2019-06-10T21:22:48.958Z,18.30
2019-06-10T21:25:19.598Z,18.30
2019-06-10T21:27:52.740Z,18.30
2019-06-10T21:30:34.801Z,18.30
2019-06-10T21:32:54.782Z,18.30
2019-06-10T21:35:25.462Z,18.30
2019-06-10T21:37:56.030Z,18.30
2019-06-10T21:40:26.564Z,18.30
2019-06-10T21:42:56.987Z,18.20
2019-06-10T21:45:27.540Z,18.20
2019-06-10T21:47:58.058Z,18.30
2019-06-10T21:50:28.634Z,18.30
2019-06-10T21:52:59.059Z,18.30
2019-06-10T21:55:29.462Z,18.30
2019-06-10T21:57:59.950Z,18.30
2019-06-10T22:00:52.084Z,18.30
2019-06-10T22:03:09.204Z,18.20
2019-06-10T22:05:42.452Z,18.20
2019-06-10T22:08:12.581Z,18.20
2019-06-10T22:10:44.193Z,18.10
2019-06-10T22:13:14.820Z,18.20
2019-06-10T22:15:46.370Z,18.10
2019-06-10T22:18:16.861Z,18.10
2019-06-10T22:20:48.815Z,18.20
2019-06-10T22:23:19.370Z,18.20
2019-06-10T22:25:51.362Z,18.20
2019-06-10T22:28:22.260Z,18.30
2019-06-10T22:31:04.165Z,18.30
2019-06-10T22:33:24.742Z,18.30
2019-06-10T22:35:57.153Z,18.20
2019-06-10T22:38:27.196Z,18.20
2019-06-10T22:40:57.570Z,18.20
2019-06-10T22:43:28.199Z,18.20
2019-06-10T22:45:59.894Z,18.20
2019-06-10T22:48:33.120Z,18.30
2019-06-10T22:51:02.702Z,18.20
2019-06-10T22:53:33.459Z,18.30
2019-06-10T22:56:04.678Z,18.20
2019-06-10T22:58:35.278Z,18.20
2019-06-10T23:01:05.754Z,18.20
2019-06-10T23:03:36.195Z,18.20
2019-06-10T23:06:06.666Z,18.20
2019-06-10T23:08:37.136Z,18.20
2019-06-10T23:11:07.530Z,18.10
2019-06-10T23:13:37.927Z,18.10
2019-06-10T23:16:08.346Z,18.10
2019-06-10T23:18:38.819Z,18.10
2019-06-10T23:21:09.270Z,17.90
2019-06-10T23:23:39.747Z,17.90
2019-06-10T23:26:10.162Z,17.90
2019-06-10T23:28:42.082Z,17.80
2019-06-10T23:31:12.866Z,17.70
2019-06-10T23:33:43.222Z,17.80
2019-06-10T23:36:13.539Z,17.80
2019-06-10T23:38:43.936Z,17.70
2019-06-10T23:41:14.895Z,17.60
2019-06-10T23:43:45.290Z,17.60
2019-06-10T23:46:15.671Z,17.60
2019-06-10T23:48:46.074Z,17.60
2019-06-10T23:51:16.543Z,17.50
2019-06-10T23:53:47.046Z,17.40
2019-06-10T23:56:17.498Z,17.40
2019-06-10T23:58:47.909Z,17.40
